sensor_id;sensor_type;location;lat;lon;timestamp;temperature;humidity
32769;DHT22;23049;54.304;8.826;2022-07-06T00:01:23;15.30;99.90
32769;DHT22;23049;54.304;8.826;2022-07-06T00:03:48;15.30;99.90
32769;DHT22;23049;54.304;8.826;2022-07-06T00:06:14;15.30;99.90
32769;DHT22;23049;54.304;8.826;2022-07-06T00:08:42;15.30;99.90
32769;DHT22;23049;54.304;8.826;2022-07-06T00:11:07;15.30;99.90
32769;DHT22;23049;54.304;8.826;2022-07-06T00:13:33;15.40;99.90
32769;DHT22;23049;54.304;8.826;2022-07-06T00:15:59;15.30;99.90
32769;DHT22;23049;54.304;8.826;2022-07-06T00:18:24;15.40;99.90
32769;DHT22;23049;54.304;8.826;2022-07-06T00:20:50;15.30;99.90
32769;DHT22;23049;54.304;8.826;2022-07-06T00:23:16;15.40;99.90
32769;DHT22;23049;54.304;8.826;2022-07-06T00:25:41;15.30;99.90
32769;DHT22;23049;54.304;8.826;2022-07-06T00:28:07;15.30;99.90
32769;DHT22;23049;54.304;8.826;2022-07-06T00:30:33;15.30;99.90
32769;DHT22;23049;54.304;8.826;2022-07-06T00:32:58;15.30;99.90
32769;DHT22;23049;54.304;8.826;2022-07-06T00:35:25;15.30;99.90
32769;DHT22;23049;54.304;8.826;2022-07-06T00:37:50;15.40;99.90
32769;DHT22;23049;54.304;8.826;2022-07-06T00:40:16;15.30;99.90
32769;DHT22;23049;54.304;8.826;2022-07-06T00:42:46;15.40;99.90
32769;DHT22;23049;54.304;8.826;2022-07-06T00:45:14;15.40;99.90
32769;DHT22;23049;54.304;8.826;2022-07-06T00:47:40;15.40;99.90
32769;DHT22;23049;54.304;8.826;2022-07-06T00:50:08;15.40;99.90
32769;DHT22;23049;54.304;8.826;2022-07-06T00:52:45;15.40;99.90
32769;DHT22;23049;54.304;8.826;2022-07-06T00:55:11;15.40;99.90
32769;DHT22;23049;54.304;8.826;2022-07-06T00:57:38;15.50;99.90
32769;DHT22;23049;54.304;8.826;2022-07-06T01:00:07;15.50;99.90
32769;DHT22;23049;54.304;8.826;2022-07-06T01:02:33;15.40;99.90
32769;DHT22;23049;54.304;8.826;2022-07-06T01:05:00;15.50;99.90
32769;DHT22;23049;54.304;8.826;2022-07-06T01:07:26;15.50;99.90
32769;DHT22;23049;54.304;8.826;2022-07-06T01:09:53;15.50;99.90
32769;DHT22;23049;54.304;8.826;2022-07-06T01:12:19;15.60;99.90
32769;DHT22;23049;54.304;8.826;2022-07-06T01:14:45;15.60;99.90
32769;DHT22;23049;54.304;8.826;2022-07-06T01:17:11;15.50;99.90
32769;DHT22;23049;54.304;8.826;2022-07-06T01:19:38;15.50;99.90
32769;DHT22;23049;54.304;8.826;2022-07-06T01:24:28;15.30;99.90
32769;DHT22;23049;54.304;8.826;2022-07-06T01:26:53;15.30;99.90
32769;DHT22;23049;54.304;8.826;2022-07-06T01:29:19;15.40;99.90
32769;DHT22;23049;54.304;8.826;2022-07-06T01:31:49;15.40;99.90
32769;DHT22;23049;54.304;8.826;2022-07-06T01:34:18;15.40;99.90
32769;DHT22;23049;54.304;8.826;2022-07-06T01:39:13;15.40;99.90
32769;DHT22;23049;54.304;8.826;2022-07-06T01:41:38;15.50;99.90
32769;DHT22;23049;54.304;8.826;2022-07-06T01:44:05;15.40;99.90
32769;DHT22;23049;54.304;8.826;2022-07-06T01:46:31;15.40;99.90
32769;DHT22;23049;54.304;8.826;2022-07-06T01:48:57;15.40;99.90
32769;DHT22;23049;54.304;8.826;2022-07-06T01:51:23;15.30;99.90
32769;DHT22;23049;54.304;8.826;2022-07-06T01:53:50;15.30;99.90
32769;DHT22;23049;54.304;8.826;2022-07-06T01:56:16;15.40;99.90
32769;DHT22;23049;54.304;8.826;2022-07-06T01:58:46;15.40;99.90
32769;DHT22;23049;54.304;8.826;2022-07-06T02:01:17;15.50;99.90
32769;DHT22;23049;54.304;8.826;2022-07-06T02:03:44;15.50;99.90
32769;DHT22;23049;54.304;8.826;2022-07-06T02:06:11;15.50;99.90
32769;DHT22;23049;54.304;8.826;2022-07-06T02:08:37;15.50;99.90
32769;DHT22;23049;54.304;8.826;2022-07-06T02:11:04;15.50;99.90
32769;DHT22;23049;54.304;8.826;2022-07-06T02:13:30;15.50;99.90
32769;DHT22;23049;54.304;8.826;2022-07-06T02:15:55;15.50;99.90
32769;DHT22;23049;54.304;8.826;2022-07-06T02:18:21;15.40;99.90
32769;DHT22;23049;54.304;8.826;2022-07-06T02:20:46;15.40;99.90
32769;DHT22;23049;54.304;8.826;2022-07-06T02:23:12;15.40;99.90
32769;DHT22;23049;54.304;8.826;2022-07-06T02:25:38;15.40;99.90
32769;DHT22;23049;54.304;8.826;2022-07-06T02:28:04;15.40;99.90
32769;DHT22;23049;54.304;8.826;2022-07-06T02:30:29;15.40;99.90
32769;DHT22;23049;54.304;8.826;2022-07-06T02:32:55;15.40;99.90
32769;DHT22;23049;54.304;8.826;2022-07-06T02:35:21;15.50;99.90
32769;DHT22;23049;54.304;8.826;2022-07-06T02:37:47;15.40;99.90
32769;DHT22;23049;54.304;8.826;2022-07-06T02:40:13;15.50;99.90
32769;DHT22;23049;54.304;8.826;2022-07-06T02:42:38;15.50;99.90
32769;DHT22;23049;54.304;8.826;2022-07-06T02:45:05;15.50;99.90
32769;DHT22;23049;54.304;8.826;2022-07-06T02:47:31;15.40;99.90
32769;DHT22;23049;54.304;8.826;2022-07-06T02:49:57;15.40;99.90
32769;DHT22;23049;54.304;8.826;2022-07-06T02:52:22;15.40;99.90
32769;DHT22;23049;54.304;8.826;2022-07-06T02:54:48;15.40;99.90
32769;DHT22;23049;54.304;8.826;2022-07-06T02:57:15;15.40;99.90
32769;DHT22;23049;54.304;8.826;2022-07-06T03:02:24;15.20;99.90
32769;DHT22;23049;54.304;8.826;2022-07-06T03:04:50;15.00;99.90
32769;DHT22;23049;54.304;8.826;2022-07-06T03:07:15;14.90;99.90
32769;DHT22;23049;54.304;8.826;2022-07-06T03:09:41;14.80;99.90
32769;DHT22;23049;54.304;8.826;2022-07-06T03:12:07;14.80;99.90
32769;DHT22;23049;54.304;8.826;2022-07-06T03:14:39;14.70;99.90
32769;DHT22;23049;54.304;8.826;2022-07-06T03:17:04;14.60;99.90
32769;DHT22;23049;54.304;8.826;2022-07-06T03:19:30;14.60;99.90
32769;DHT22;23049;54.304;8.826;2022-07-06T03:21:56;14.50;99.90
32769;DHT22;23049;54.304;8.826;2022-07-06T03:24:21;14.50;99.90
32769;DHT22;23049;54.304;8.826;2022-07-06T03:26:47;14.60;99.90
32769;DHT22;23049;54.304;8.826;2022-07-06T03:29:13;14.50;99.90
32769;DHT22;23049;54.304;8.826;2022-07-06T03:31:39;14.50;99.90
32769;DHT22;23049;54.304;8.826;2022-07-06T03:36:42;14.50;99.90
32769;DHT22;23049;54.304;8.826;2022-07-06T03:39:07;14.60;99.90
32769;DHT22;23049;54.304;8.826;2022-07-06T03:43:46;14.60;99.90
32769;DHT22;23049;54.304;8.826;2022-07-06T03:46:11;14.60;99.90
32769;DHT22;23049;54.304;8.826;2022-07-06T03:48:37;14.60;99.90
32769;DHT22;23049;54.304;8.826;2022-07-06T03:51:03;14.70;99.90
32769;DHT22;23049;54.304;8.826;2022-07-06T03:53:28;14.70;99.90
32769;DHT22;23049;54.304;8.826;2022-07-06T03:55:54;14.70;99.90
32769;DHT22;23049;54.304;8.826;2022-07-06T03:58:38;14.70;99.90
32769;DHT22;23049;54.304;8.826;2022-07-06T04:01:04;14.60;99.90
32769;DHT22;23049;54.304;8.826;2022-07-06T04:03:29;14.70;99.90
32769;DHT22;23049;54.304;8.826;2022-07-06T04:08:25;14.70;99.90
32769;DHT22;23049;54.304;8.826;2022-07-06T04:10:51;14.80;99.90
32769;DHT22;23049;54.304;8.826;2022-07-06T04:13:17;14.80;99.90
32769;DHT22;23049;54.304;8.826;2022-07-06T04:15:42;14.90;99.90
32769;DHT22;23049;54.304;8.826;2022-07-06T04:18:08;14.90;99.90
32769;DHT22;23049;54.304;8.826;2022-07-06T04:20:33;14.90;99.90
32769;DHT22;23049;54.304;8.826;2022-07-06T04:23:00;14.90;99.90
32769;DHT22;23049;54.304;8.826;2022-07-06T04:25:26;15.00;99.90
32769;DHT22;23049;54.304;8.826;2022-07-06T04:27:52;15.00;99.90
32769;DHT22;23049;54.304;8.826;2022-07-06T04:30:17;15.00;99.90
32769;DHT22;23049;54.304;8.826;2022-07-06T04:32:43;15.00;99.90
32769;DHT22;23049;54.304;8.826;2022-07-06T04:35:09;15.00;99.90
32769;DHT22;23049;54.304;8.826;2022-07-06T04:37:35;15.00;99.90
32769;DHT22;23049;54.304;8.826;2022-07-06T04:40:01;15.10;99.90
32769;DHT22;23049;54.304;8.826;2022-07-06T04:42:26;15.20;99.90
32769;DHT22;23049;54.304;8.826;2022-07-06T04:44:52;15.30;99.90
32769;DHT22;23049;54.304;8.826;2022-07-06T04:47:18;15.60;99.90
32769;DHT22;23049;54.304;8.826;2022-07-06T04:49:43;16.20;99.90
32769;DHT22;23049;54.304;8.826;2022-07-06T04:52:09;16.70;99.90
32769;DHT22;23049;54.304;8.826;2022-07-06T04:54:35;17.00;99.90
32769;DHT22;23049;54.304;8.826;2022-07-06T04:57:00;17.00;99.90
32769;DHT22;23049;54.304;8.826;2022-07-06T04:59:26;17.00;99.90
32769;DHT22;23049;54.304;8.826;2022-07-06T05:01:52;16.80;99.90
32769;DHT22;23049;54.304;8.826;2022-07-06T05:06:49;16.30;99.90
32769;DHT22;23049;54.304;8.826;2022-07-06T05:09:14;16.10;99.90
32769;DHT22;23049;54.304;8.826;2022-07-06T05:11:40;16.00;99.90
32769;DHT22;23049;54.304;8.826;2022-07-06T05:14:06;15.90;99.90
32769;DHT22;23049;54.304;8.826;2022-07-06T05:16:32;15.90;99.90
32769;DHT22;23049;54.304;8.826;2022-07-06T05:18:58;15.90;99.90
32769;DHT22;23049;54.304;8.826;2022-07-06T05:21:24;15.90;99.90
32769;DHT22;23049;54.304;8.826;2022-07-06T05:23:50;15.90;99.90
32769;DHT22;23049;54.304;8.826;2022-07-06T05:26:16;16.00;99.90
32769;DHT22;23049;54.304;8.826;2022-07-06T05:28:42;16.10;99.90
32769;DHT22;23049;54.304;8.826;2022-07-06T05:31:07;16.30;99.90
32769;DHT22;23049;54.304;8.826;2022-07-06T05:33:33;16.80;99.90
32769;DHT22;23049;54.304;8.826;2022-07-06T05:36:25;17.30;99.90
32769;DHT22;23049;54.304;8.826;2022-07-06T05:41:48;17.20;99.90
32769;DHT22;23049;54.304;8.826;2022-07-06T05:44:14;17.00;99.90
32769;DHT22;23049;54.304;8.826;2022-07-06T05:46:40;16.90;99.90
32769;DHT22;23049;54.304;8.826;2022-07-06T05:49:06;16.90;99.90
32769;DHT22;23049;54.304;8.826;2022-07-06T05:51:50;17.10;99.90
32769;DHT22;23049;54.304;8.826;2022-07-06T05:54:16;16.90;99.90
32769;DHT22;23049;54.304;8.826;2022-07-06T05:59:21;15.80;99.90
32769;DHT22;23049;54.304;8.826;2022-07-06T06:04:01;15.30;99.90
32769;DHT22;23049;54.304;8.826;2022-07-06T06:06:27;15.10;99.90
32769;DHT22;23049;54.304;8.826;2022-07-06T06:08:52;15.20;99.90
32769;DHT22;23049;54.304;8.826;2022-07-06T06:11:18;15.10;99.90
32769;DHT22;23049;54.304;8.826;2022-07-06T06:13:44;14.90;99.90
32769;DHT22;23049;54.304;8.826;2022-07-06T06:16:09;14.90;99.90
32769;DHT22;23049;54.304;8.826;2022-07-06T06:18:35;14.90;99.90
32769;DHT22;23049;54.304;8.826;2022-07-06T06:21:01;14.90;99.90
32769;DHT22;23049;54.304;8.826;2022-07-06T06:23:26;15.00;99.90
32769;DHT22;23049;54.304;8.826;2022-07-06T06:25:52;15.10;99.90
32769;DHT22;23049;54.304;8.826;2022-07-06T06:28:18;15.20;99.90
32769;DHT22;23049;54.304;8.826;2022-07-06T06:30:43;15.30;99.90
32769;DHT22;23049;54.304;8.826;2022-07-06T06:33:11;15.50;99.90
32769;DHT22;23049;54.304;8.826;2022-07-06T06:35:47;15.70;99.90
32769;DHT22;23049;54.304;8.826;2022-07-06T06:38:14;15.90;99.90
32769;DHT22;23049;54.304;8.826;2022-07-06T06:40:40;16.20;99.90
32769;DHT22;23049;54.304;8.826;2022-07-06T06:43:05;16.40;99.90
32769;DHT22;23049;54.304;8.826;2022-07-06T06:45:32;16.70;99.90
32769;DHT22;23049;54.304;8.826;2022-07-06T06:47:58;16.80;99.90
32769;DHT22;23049;54.304;8.826;2022-07-06T06:50:23;16.90;99.90
32769;DHT22;23049;54.304;8.826;2022-07-06T06:55:07;16.80;99.90
32769;DHT22;23049;54.304;8.826;2022-07-06T06:57:33;16.80;99.90
32769;DHT22;23049;54.304;8.826;2022-07-06T06:59:58;16.70;99.90
32769;DHT22;23049;54.304;8.826;2022-07-06T07:02:24;16.80;99.90
32769;DHT22;23049;54.304;8.826;2022-07-06T07:04:50;16.80;99.90
32769;DHT22;23049;54.304;8.826;2022-07-06T07:07:15;16.80;99.90
32769;DHT22;23049;54.304;8.826;2022-07-06T07:09:41;16.80;99.90
32769;DHT22;23049;54.304;8.826;2022-07-06T07:12:07;16.90;99.90
32769;DHT22;23049;54.304;8.826;2022-07-06T07:14:32;16.80;99.90
32769;DHT22;23049;54.304;8.826;2022-07-06T07:16:58;16.80;99.90
32769;DHT22;23049;54.304;8.826;2022-07-06T07:21:42;16.90;99.90
32769;DHT22;23049;54.304;8.826;2022-07-06T07:24:08;16.90;99.90
32769;DHT22;23049;54.304;8.826;2022-07-06T07:26:33;16.80;99.90
32769;DHT22;23049;54.304;8.826;2022-07-06T07:28:59;16.80;99.90
32769;DHT22;23049;54.304;8.826;2022-07-06T07:31:24;16.80;99.90
32769;DHT22;23049;54.304;8.826;2022-07-06T07:33:50;16.80;99.90
32769;DHT22;23049;54.304;8.826;2022-07-06T07:36:16;16.90;99.90
32769;DHT22;23049;54.304;8.826;2022-07-06T07:38:41;17.00;99.90
32769;DHT22;23049;54.304;8.826;2022-07-06T07:41:07;17.10;99.90
32769;DHT22;23049;54.304;8.826;2022-07-06T07:43:33;17.20;99.90
32769;DHT22;23049;54.304;8.826;2022-07-06T07:45:58;17.30;99.90
32769;DHT22;23049;54.304;8.826;2022-07-06T07:48:24;17.50;99.90
32769;DHT22;23049;54.304;8.826;2022-07-06T07:50:50;17.60;99.90
32769;DHT22;23049;54.304;8.826;2022-07-06T07:53:15;17.80;99.90
32769;DHT22;23049;54.304;8.826;2022-07-06T07:55:41;17.80;99.90
32769;DHT22;23049;54.304;8.826;2022-07-06T07:58:07;17.50;99.90
32769;DHT22;23049;54.304;8.826;2022-07-06T08:00:32;17.70;99.90
32769;DHT22;23049;54.304;8.826;2022-07-06T08:02:58;17.80;99.90
32769;DHT22;23049;54.304;8.826;2022-07-06T08:05:24;17.80;99.90
32769;DHT22;23049;54.304;8.826;2022-07-06T08:07:50;17.60;99.90
32769;DHT22;23049;54.304;8.826;2022-07-06T08:10:15;17.70;99.90
32769;DHT22;23049;54.304;8.826;2022-07-06T08:12:41;17.90;99.90
32769;DHT22;23049;54.304;8.826;2022-07-06T08:15:08;18.00;99.90
32769;DHT22;23049;54.304;8.826;2022-07-06T08:17:34;18.00;99.90
32769;DHT22;23049;54.304;8.826;2022-07-06T08:20:00;17.70;99.90
32769;DHT22;23049;54.304;8.826;2022-07-06T08:22:26;17.80;99.90
32769;DHT22;23049;54.304;8.826;2022-07-06T08:24:55;17.90;99.90
32769;DHT22;23049;54.304;8.826;2022-07-06T08:27:21;18.00;99.90
32769;DHT22;23049;54.304;8.826;2022-07-06T08:29:47;18.00;99.90
32769;DHT22;23049;54.304;8.826;2022-07-06T08:32:12;17.70;99.90
32769;DHT22;23049;54.304;8.826;2022-07-06T08:34:40;17.60;99.90
32769;DHT22;23049;54.304;8.826;2022-07-06T08:37:06;17.30;99.90
32769;DHT22;23049;54.304;8.826;2022-07-06T08:39:31;17.40;99.90
32769;DHT22;23049;54.304;8.826;2022-07-06T08:41:58;17.70;99.90
32769;DHT22;23049;54.304;8.826;2022-07-06T08:44:26;17.70;99.90
32769;DHT22;23049;54.304;8.826;2022-07-06T08:46:52;17.30;99.90
32769;DHT22;23049;54.304;8.826;2022-07-06T08:49:19;17.30;99.90
32769;DHT22;23049;54.304;8.826;2022-07-06T08:51:45;17.50;99.90
32769;DHT22;23049;54.304;8.826;2022-07-06T08:54:11;17.40;99.90
32769;DHT22;23049;54.304;8.826;2022-07-06T08:56:38;17.30;99.90
32769;DHT22;23049;54.304;8.826;2022-07-06T08:59:04;17.70;99.90
32769;DHT22;23049;54.304;8.826;2022-07-06T09:04:00;17.80;99.90
32769;DHT22;23049;54.304;8.826;2022-07-06T09:06:28;17.80;99.90
32769;DHT22;23049;54.304;8.826;2022-07-06T09:08:56;17.80;99.90
32769;DHT22;23049;54.304;8.826;2022-07-06T09:11:22;17.90;99.90
32769;DHT22;23049;54.304;8.826;2022-07-06T09:13:48;17.90;99.90
32769;DHT22;23049;54.304;8.826;2022-07-06T09:16:15;17.90;99.90
32769;DHT22;23049;54.304;8.826;2022-07-06T09:18:44;17.70;99.90
32769;DHT22;23049;54.304;8.826;2022-07-06T09:21:10;17.80;99.90
32769;DHT22;23049;54.304;8.826;2022-07-06T09:23:37;18.10;99.90
32769;DHT22;23049;54.304;8.826;2022-07-06T09:26:05;18.30;99.90
32769;DHT22;23049;54.304;8.826;2022-07-06T09:28:44;18.30;99.90
32769;DHT22;23049;54.304;8.826;2022-07-06T09:31:10;18.30;99.90
32769;DHT22;23049;54.304;8.826;2022-07-06T09:33:36;18.20;99.90
32769;DHT22;23049;54.304;8.826;2022-07-06T09:36:02;18.40;99.90
32769;DHT22;23049;54.304;8.826;2022-07-06T09:38:28;18.50;99.90
32769;DHT22;23049;54.304;8.826;2022-07-06T09:40:54;18.50;99.90
32769;DHT22;23049;54.304;8.826;2022-07-06T09:43:21;18.20;99.90
32769;DHT22;23049;54.304;8.826;2022-07-06T09:45:57;18.20;99.90
32769;DHT22;23049;54.304;8.826;2022-07-06T09:48:27;18.50;99.90
32769;DHT22;23049;54.304;8.826;2022-07-06T09:50:59;18.30;99.90
32769;DHT22;23049;54.304;8.826;2022-07-06T09:55:53;18.40;99.90
32769;DHT22;23049;54.304;8.826;2022-07-06T09:58:19;18.30;99.90
32769;DHT22;23049;54.304;8.826;2022-07-06T10:00:46;18.20;99.90
32769;DHT22;23049;54.304;8.826;2022-07-06T10:03:12;18.20;99.90
32769;DHT22;23049;54.304;8.826;2022-07-06T10:05:40;18.40;99.90
32769;DHT22;23049;54.304;8.826;2022-07-06T10:08:07;18.50;99.90
32769;DHT22;23049;54.304;8.826;2022-07-06T10:10:36;18.60;99.90
32769;DHT22;23049;54.304;8.826;2022-07-06T10:13:02;18.60;99.90
32769;DHT22;23049;54.304;8.826;2022-07-06T10:15:30;18.50;99.90
32769;DHT22;23049;54.304;8.826;2022-07-06T10:18:02;18.60;99.90
32769;DHT22;23049;54.304;8.826;2022-07-06T10:24:59;18.50;99.90
32769;DHT22;23049;54.304;8.826;2022-07-06T10:27:26;18.60;99.90
32769;DHT22;23049;54.304;8.826;2022-07-06T10:29:51;18.80;99.90
32769;DHT22;23049;54.304;8.826;2022-07-06T10:32:21;18.80;99.90
32769;DHT22;23049;54.304;8.826;2022-07-06T10:34:48;18.80;99.90
32769;DHT22;23049;54.304;8.826;2022-07-06T10:37:25;18.50;99.90
32769;DHT22;23049;54.304;8.826;2022-07-06T10:39:52;18.40;99.90
32769;DHT22;23049;54.304;8.826;2022-07-06T10:42:50;18.50;99.90
32769;DHT22;23049;54.304;8.826;2022-07-06T10:50:39;18.50;99.90
32769;DHT22;23049;54.304;8.826;2022-07-06T10:53:17;18.40;99.90
32769;DHT22;23049;54.304;8.826;2022-07-06T10:55:47;18.70;99.90
32769;DHT22;23049;54.304;8.826;2022-07-06T10:58:15;18.80;99.90
32769;DHT22;23049;54.304;8.826;2022-07-06T11:00:59;19.00;99.90
32769;DHT22;23049;54.304;8.826;2022-07-06T11:03:47;18.70;99.90
32769;DHT22;23049;54.304;8.826;2022-07-06T11:06:18;18.60;99.90
32769;DHT22;23049;54.304;8.826;2022-07-06T11:08:55;18.70;99.90
32769;DHT22;23049;54.304;8.826;2022-07-06T11:13:42;19.00;99.90
32769;DHT22;23049;54.304;8.826;2022-07-06T11:16:08;19.00;99.90
32769;DHT22;23049;54.304;8.826;2022-07-06T11:18:47;19.10;99.90
32769;DHT22;23049;54.304;8.826;2022-07-06T11:21:23;19.00;99.90
32769;DHT22;23049;54.304;8.826;2022-07-06T11:23:57;19.00;99.90
32769;DHT22;23049;54.304;8.826;2022-07-06T11:26:23;18.90;99.90
32769;DHT22;23049;54.304;8.826;2022-07-06T11:28:51;19.30;99.90
32769;DHT22;23049;54.304;8.826;2022-07-06T11:31:17;19.70;99.90
32769;DHT22;23049;54.304;8.826;2022-07-06T11:33:46;19.70;99.90
32769;DHT22;23049;54.304;8.826;2022-07-06T11:36:17;19.30;99.90
32769;DHT22;23049;54.304;8.826;2022-07-06T11:38:44;18.90;99.90
32769;DHT22;23049;54.304;8.826;2022-07-06T11:41:11;18.60;99.90
32769;DHT22;23049;54.304;8.826;2022-07-06T11:43:42;18.60;99.90
32769;DHT22;23049;54.304;8.826;2022-07-06T11:46:29;18.30;99.90
32769;DHT22;23049;54.304;8.826;2022-07-06T11:48:57;18.30;99.90
32769;DHT22;23049;54.304;8.826;2022-07-06T11:51:25;18.20;99.90
32769;DHT22;23049;54.304;8.826;2022-07-06T11:53:57;18.50;99.90
32769;DHT22;23049;54.304;8.826;2022-07-06T11:56:25;18.90;99.90
32769;DHT22;23049;54.304;8.826;2022-07-06T11:58:54;18.60;99.90
32769;DHT22;23049;54.304;8.826;2022-07-06T12:01:21;18.60;99.90
32769;DHT22;23049;54.304;8.826;2022-07-06T12:03:48;18.70;99.90
32769;DHT22;23049;54.304;8.826;2022-07-06T12:06:21;18.90;99.90
32769;DHT22;23049;54.304;8.826;2022-07-06T12:08:48;19.00;99.90
32769;DHT22;23049;54.304;8.826;2022-07-06T12:11:25;19.10;99.90
32769;DHT22;23049;54.304;8.826;2022-07-06T12:16:32;19.30;99.90
32769;DHT22;23049;54.304;8.826;2022-07-06T12:18:59;19.00;99.90
32769;DHT22;23049;54.304;8.826;2022-07-06T12:21:25;18.70;99.90
32769;DHT22;23049;54.304;8.826;2022-07-06T12:26:20;18.50;99.90
32769;DHT22;23049;54.304;8.826;2022-07-06T12:28:47;18.70;99.90
32769;DHT22;23049;54.304;8.826;2022-07-06T12:31:35;18.90;99.90
32769;DHT22;23049;54.304;8.826;2022-07-06T12:34:02;19.10;99.90
32769;DHT22;23049;54.304;8.826;2022-07-06T12:39:13;18.80;99.90
32769;DHT22;23049;54.304;8.826;2022-07-06T12:44:04;18.60;99.90
32769;DHT22;23049;54.304;8.826;2022-07-06T12:49:01;18.80;99.90
32769;DHT22;23049;54.304;8.826;2022-07-06T12:51:27;18.90;99.90
32769;DHT22;23049;54.304;8.826;2022-07-06T12:54:11;19.10;99.90
32769;DHT22;23049;54.304;8.826;2022-07-06T12:56:36;19.00;99.90
32769;DHT22;23049;54.304;8.826;2022-07-06T12:59:02;19.20;99.90
32769;DHT22;23049;54.304;8.826;2022-07-06T13:01:28;19.30;99.90
32769;DHT22;23049;54.304;8.826;2022-07-06T13:03:57;19.50;99.90
32769;DHT22;23049;54.304;8.826;2022-07-06T13:06:31;19.20;99.90
32769;DHT22;23049;54.304;8.826;2022-07-06T13:08:57;18.90;99.90
32769;DHT22;23049;54.304;8.826;2022-07-06T13:11:23;18.80;99.90
32769;DHT22;23049;54.304;8.826;2022-07-06T13:13:49;19.10;99.90
32769;DHT22;23049;54.304;8.826;2022-07-06T13:16:14;19.30;99.90
32769;DHT22;23049;54.304;8.826;2022-07-06T13:18:40;19.30;99.90
32769;DHT22;23049;54.304;8.826;2022-07-06T13:21:06;19.20;99.90
32769;DHT22;23049;54.304;8.826;2022-07-06T13:23:31;19.30;99.90
32769;DHT22;23049;54.304;8.826;2022-07-06T13:25:57;19.30;99.90
32769;DHT22;23049;54.304;8.826;2022-07-06T13:28:22;19.60;99.90
32769;DHT22;23049;54.304;8.826;2022-07-06T13:30:48;19.60;99.90
32769;DHT22;23049;54.304;8.826;2022-07-06T13:33:14;19.70;99.90
32769;DHT22;23049;54.304;8.826;2022-07-06T13:35:39;19.60;99.90
32769;DHT22;23049;54.304;8.826;2022-07-06T13:38:05;19.70;99.90
32769;DHT22;23049;54.304;8.826;2022-07-06T13:40:30;19.60;99.90
32769;DHT22;23049;54.304;8.826;2022-07-06T13:42:57;19.40;99.90
32769;DHT22;23049;54.304;8.826;2022-07-06T13:45:23;19.30;99.90
32769;DHT22;23049;54.304;8.826;2022-07-06T13:47:48;19.20;99.90
32769;DHT22;23049;54.304;8.826;2022-07-06T13:50:14;19.00;99.90
32769;DHT22;23049;54.304;8.826;2022-07-06T13:52:39;18.70;99.90
32769;DHT22;23049;54.304;8.826;2022-07-06T13:55:06;18.50;99.90
32769;DHT22;23049;54.304;8.826;2022-07-06T13:57:31;18.50;99.90
32769;DHT22;23049;54.304;8.826;2022-07-06T14:05:11;18.90;99.90
32769;DHT22;23049;54.304;8.826;2022-07-06T14:07:37;19.10;99.90
32769;DHT22;23049;54.304;8.826;2022-07-06T14:10:03;19.30;99.90
32769;DHT22;23049;54.304;8.826;2022-07-06T14:12:29;19.60;99.90
32769;DHT22;23049;54.304;8.826;2022-07-06T14:14:55;19.60;99.90
32769;DHT22;23049;54.304;8.826;2022-07-06T14:17:23;19.50;99.90
32769;DHT22;23049;54.304;8.826;2022-07-06T14:19:50;19.60;99.90
32769;DHT22;23049;54.304;8.826;2022-07-06T14:22:15;19.70;99.90
32769;DHT22;23049;54.304;8.826;2022-07-06T14:24:42;19.40;99.90
32769;DHT22;23049;54.304;8.826;2022-07-06T14:27:07;19.10;99.90
32769;DHT22;23049;54.304;8.826;2022-07-06T14:32:02;19.00;99.90
32769;DHT22;23049;54.304;8.826;2022-07-06T14:34:27;18.90;99.90
32769;DHT22;23049;54.304;8.826;2022-07-06T14:36:54;18.60;99.90
32769;DHT22;23049;54.304;8.826;2022-07-06T14:39:19;18.60;99.90
32769;DHT22;23049;54.304;8.826;2022-07-06T14:41:54;18.70;99.90
32769;DHT22;23049;54.304;8.826;2022-07-06T14:44:20;18.60;99.90
32769;DHT22;23049;54.304;8.826;2022-07-06T14:46:45;18.60;99.90
32769;DHT22;23049;54.304;8.826;2022-07-06T14:49:11;18.90;99.90
32769;DHT22;23049;54.304;8.826;2022-07-06T14:51:37;18.90;99.90
32769;DHT22;23049;54.304;8.826;2022-07-06T14:54:02;18.70;99.90
32769;DHT22;23049;54.304;8.826;2022-07-06T14:56:30;18.80;99.90
32769;DHT22;23049;54.304;8.826;2022-07-06T14:58:57;18.70;99.90
32769;DHT22;23049;54.304;8.826;2022-07-06T15:01:22;18.70;99.90
32769;DHT22;23049;54.304;8.826;2022-07-06T15:03:48;18.60;99.90
32769;DHT22;23049;54.304;8.826;2022-07-06T15:06:13;18.60;99.90
32769;DHT22;23049;54.304;8.826;2022-07-06T15:08:39;18.50;99.90
32769;DHT22;23049;54.304;8.826;2022-07-06T15:11:05;18.40;99.90
32769;DHT22;23049;54.304;8.826;2022-07-06T15:13:31;18.20;99.90
32769;DHT22;23049;54.304;8.826;2022-07-06T15:15:56;18.10;99.90
32769;DHT22;23049;54.304;8.826;2022-07-06T15:18:22;18.10;99.90
32769;DHT22;23049;54.304;8.826;2022-07-06T15:20:47;18.10;99.90
32769;DHT22;23049;54.304;8.826;2022-07-06T15:23:13;18.10;99.90
32769;DHT22;23049;54.304;8.826;2022-07-06T15:25:39;18.10;99.90
32769;DHT22;23049;54.304;8.826;2022-07-06T15:28:04;18.10;99.90
32769;DHT22;23049;54.304;8.826;2022-07-06T15:30:30;18.00;99.90
32769;DHT22;23049;54.304;8.826;2022-07-06T15:32:58;18.00;99.90
32769;DHT22;23049;54.304;8.826;2022-07-06T15:35:24;18.10;99.90
32769;DHT22;23049;54.304;8.826;2022-07-06T15:37:50;18.10;99.90
32769;DHT22;23049;54.304;8.826;2022-07-06T15:40:15;18.00;99.90
32769;DHT22;23049;54.304;8.826;2022-07-06T15:42:46;18.00;99.90
32769;DHT22;23049;54.304;8.826;2022-07-06T15:45:12;18.00;99.90
32769;DHT22;23049;54.304;8.826;2022-07-06T15:47:39;18.00;99.90
32769;DHT22;23049;54.304;8.826;2022-07-06T15:50:05;18.00;99.90
32769;DHT22;23049;54.304;8.826;2022-07-06T15:52:31;17.90;99.90
32769;DHT22;23049;54.304;8.826;2022-07-06T15:54:57;17.90;99.90
32769;DHT22;23049;54.304;8.826;2022-07-06T15:57:22;17.80;99.90
32769;DHT22;23049;54.304;8.826;2022-07-06T16:02:19;17.60;99.90
32769;DHT22;23049;54.304;8.826;2022-07-06T16:04:45;17.50;99.90
32769;DHT22;23049;54.304;8.826;2022-07-06T16:07:12;17.40;99.90
32769;DHT22;23049;54.304;8.826;2022-07-06T16:09:37;17.40;99.90
32769;DHT22;23049;54.304;8.826;2022-07-06T16:12:04;17.50;99.90
32769;DHT22;23049;54.304;8.826;2022-07-06T16:14:29;17.40;99.90
32769;DHT22;23049;54.304;8.826;2022-07-06T16:16:55;17.50;99.90
32769;DHT22;23049;54.304;8.826;2022-07-06T16:19:21;17.50;99.90
32769;DHT22;23049;54.304;8.826;2022-07-06T16:21:46;17.50;99.90
32769;DHT22;23049;54.304;8.826;2022-07-06T16:24:12;17.50;99.90
32769;DHT22;23049;54.304;8.826;2022-07-06T16:26:38;17.40;99.90
32769;DHT22;23049;54.304;8.826;2022-07-06T16:29:03;17.40;99.90
32769;DHT22;23049;54.304;8.826;2022-07-06T16:31:29;17.20;99.90
32769;DHT22;23049;54.304;8.826;2022-07-06T16:33:55;17.20;99.90
32769;DHT22;23049;54.304;8.826;2022-07-06T16:36:21;17.10;99.90
32769;DHT22;23049;54.304;8.826;2022-07-06T16:38:47;17.20;99.90